createdAt,value
2022-10-02T07:38:54.933Z,1.23
2022-10-02T07:41:42.640Z,1.30
2022-10-02T07:44:27.147Z,1.95
2022-10-02T07:47:12.305Z,1.30
2022-10-02T07:49:50.918Z,1.33
2022-10-02T07:52:37.333Z,1.80
2022-10-02T07:55:32.800Z,1.50
2022-10-02T07:58:05.733Z,1.85
2022-10-02T08:00:40.839Z,4.22
2022-10-02T08:03:32.675Z,5.57
2022-10-02T08:06:06.290Z,2.75
2022-10-02T08:08:41.667Z,1.55
2022-10-02T08:11:21.624Z,1.55
2022-10-02T08:14:01.305Z,1.30
2022-10-02T08:16:37.186Z,1.50
2022-10-02T08:19:16.252Z,1.30
2022-10-02T08:21:56.089Z,1.40
2022-10-02T08:24:37.048Z,1.70
2022-10-02T08:27:13.271Z,1.83
2022-10-02T08:29:53.381Z,1.98
2022-10-02T08:32:32.468Z,1.70
2022-10-02T08:35:15.032Z,2.05
2022-10-02T08:38:07.065Z,1.50
2022-10-02T08:40:42.809Z,1.13
2022-10-02T08:43:34.099Z,1.10
2022-10-02T08:46:07.132Z,1.30
2022-10-02T08:48:57.006Z,1.27
2022-10-02T08:51:53.063Z,1.20
2022-10-02T08:54:45.564Z,1.50
2022-10-02T08:57:27.885Z,1.30
2022-10-02T09:00:19.186Z,1.30
2022-10-02T09:02:54.802Z,1.70
2022-10-02T09:05:40.927Z,1.23
2022-10-02T09:08:24.078Z,1.00
2022-10-02T09:11:11.969Z,1.20
2022-10-02T09:13:50.746Z,1.40
2022-10-02T09:16:37.547Z,1.40
2022-10-02T09:19:21.086Z,1.15
2022-10-02T09:21:56.481Z,1.00
2022-10-02T09:24:35.288Z,1.38
2022-10-02T09:27:20.392Z,1.30
2022-10-02T09:29:59.415Z,1.50
2022-10-02T09:32:43.465Z,1.30
2022-10-02T09:35:35.029Z,1.60
2022-10-02T09:38:30.429Z,1.63
2022-10-02T09:41:24.679Z,1.40
2022-10-02T09:44:03.885Z,1.60
2022-10-02T09:46:37.166Z,1.63
2022-10-02T09:49:16.432Z,1.40
2022-10-02T09:51:49.391Z,1.58
2022-10-02T09:54:36.972Z,1.50
2022-10-02T09:57:32.076Z,1.42
2022-10-02T10:00:23.286Z,1.55
2022-10-02T10:03:15.199Z,1.90
2022-10-02T10:05:58.716Z,1.70
2022-10-02T10:08:40.830Z,1.50
2022-10-02T10:11:49.206Z,1.60
2022-10-02T10:14:30.850Z,1.60
2022-10-02T10:17:12.355Z,1.08
2022-10-02T10:19:54.300Z,1.50
2022-10-02T10:22:43.386Z,1.27
2022-10-02T10:25:28.552Z,1.42
2022-10-02T10:28:19.742Z,1.10
2022-10-02T10:31:10.463Z,1.80
2022-10-02T10:33:58.187Z,1.20
2022-10-02T10:36:49.185Z,1.50
2022-10-02T10:39:27.075Z,1.60
2022-10-02T10:42:01.737Z,1.92
2022-10-02T10:44:40.288Z,1.48
2022-10-02T10:47:39.434Z,1.45
2022-10-02T10:50:14.761Z,1.40
2022-10-02T10:53:05.940Z,1.30
2022-10-02T10:55:53.373Z,1.25
2022-10-02T10:58:45.660Z,1.40
2022-10-02T11:01:19.583Z,1.40
2022-10-02T11:04:07.149Z,1.20
2022-10-02T11:06:45.924Z,1.10
2022-10-02T11:09:51.394Z,1.50
2022-10-02T11:12:23.865Z,1.40
2022-10-02T11:15:20.090Z,1.20
2022-10-02T11:17:52.538Z,1.25
2022-10-02T11:20:34.991Z,1.60
2022-10-02T11:23:27.672Z,1.20
2022-10-02T11:26:16.294Z,1.10
2022-10-02T11:29:11.817Z,0.98
2022-10-02T11:31:47.400Z,1.10
2022-10-02T11:34:40.673Z,1.20
2022-10-02T11:37:40.049Z,1.38
2022-10-02T11:40:18.213Z,1.48
2022-10-02T11:43:11.803Z,1.20
2022-10-02T11:45:55.567Z,1.10
2022-10-02T11:48:39.480Z,1.20
2022-10-02T11:51:14.747Z,1.02
2022-10-02T11:53:47.607Z,1.30
2022-10-02T11:56:32.114Z,1.13
2022-10-02T11:59:29.979Z,1.40
2022-10-02T12:02:21.070Z,1.50
2022-10-02T12:05:12.584Z,1.23
2022-10-02T12:07:50.601Z,1.10
2022-10-02T12:10:44.410Z,1.45
2022-10-02T12:13:55.958Z,1.10
2022-10-02T12:17:01.227Z,1.35
2022-10-02T12:20:11.307Z,1.57
2022-10-02T12:23:11.214Z,1.20
2022-10-02T12:26:14.257Z,1.33
2022-10-02T12:28:56.914Z,1.80
2022-10-02T12:31:30.222Z,1.98
2022-10-02T12:34:21.619Z,1.30
2022-10-02T12:37:00.506Z,1.13
2022-10-02T12:39:40.506Z,1.30
2022-10-02T12:42:22.103Z,1.05
2022-10-02T12:44:59.572Z,1.40
2022-10-02T12:47:49.825Z,1.10
2022-10-02T12:50:33.930Z,1.20
2022-10-02T12:53:09.382Z,1.08
2022-10-02T12:56:17.851Z,1.40
2022-10-02T12:58:54.241Z,1.20
2022-10-02T13:01:33.219Z,1.45
2022-10-02T13:04:24.313Z,1.55
2022-10-02T13:07:17.177Z,1.00
2022-10-02T13:10:05.856Z,1.58
2022-10-02T13:12:38.775Z,1.80
2022-10-02T13:15:12.112Z,1.40
2022-10-02T13:18:07.977Z,1.60
2022-10-02T13:21:06.510Z,1.02
2022-10-02T13:23:52.338Z,1.15
2022-10-02T13:26:43.744Z,1.17
2022-10-02T13:29:22.564Z,0.95
2022-10-02T13:31:55.329Z,1.05
2022-10-02T13:34:28.221Z,1.10
2022-10-02T13:37:28.614Z,1.20
2022-10-02T13:40:19.888Z,0.80
2022-10-02T13:42:54.614Z,0.90
2022-10-02T13:45:31.426Z,1.10
2022-10-02T13:48:10.236Z,0.90
2022-10-02T13:50:46.974Z,1.10
2022-10-02T13:53:38.318Z,1.40
2022-10-02T13:56:22.818Z,0.90
2022-10-02T13:59:16.125Z,0.90
2022-10-02T14:02:02.763Z,0.75
2022-10-02T14:04:43.987Z,1.10
2022-10-02T14:07:24.257Z,1.40
2022-10-02T14:10:00.356Z,1.38
2022-10-02T14:12:38.793Z,1.35
2022-10-02T14:15:11.200Z,1.30
2022-10-02T14:18:03.096Z,1.00
2022-10-02T14:20:55.652Z,0.80
2022-10-02T14:23:31.650Z,1.35
2022-10-02T14:26:08.763Z,1.00
2022-10-02T14:28:45.015Z,1.03
2022-10-02T14:31:20.792Z,1.52
2022-10-02T14:34:14.297Z,1.10
2022-10-02T14:36:52.896Z,1.27
2022-10-02T14:39:31.907Z,1.70
2022-10-02T14:42:22.809Z,2.53
2022-10-02T14:45:12.686Z,10.73
2022-10-02T14:48:12.679Z,7.65
2022-10-02T14:50:57.819Z,4.10
2022-10-02T14:53:30.733Z,5.10
2022-10-02T14:56:24.681Z,6.57
2022-10-02T14:59:15.823Z,12.00
2022-10-02T15:02:00.664Z,9.33
2022-10-02T15:04:33.483Z,9.88
2022-10-02T15:07:08.405Z,12.40
2022-10-02T15:09:53.209Z,9.10
2022-10-02T15:12:31.816Z,7.50
2022-10-02T15:15:07.420Z,5.05
2022-10-02T15:18:04.736Z,3.38
2022-10-02T15:20:49.266Z,3.08
2022-10-02T15:23:41.437Z,3.78
2022-10-02T15:26:26.220Z,6.90
2022-10-02T15:28:59.359Z,4.57
2022-10-02T15:31:44.582Z,3.63
2022-10-02T15:34:30.497Z,3.90
2022-10-02T15:37:06.514Z,3.83
2022-10-02T15:39:42.663Z,3.10
2022-10-02T15:42:48.117Z,2.95
2022-10-02T15:45:42.019Z,3.90
2022-10-02T15:48:20.107Z,4.15
2022-10-02T15:50:53.209Z,3.75
2022-10-02T15:53:31.961Z,3.83
2022-10-02T15:56:17.600Z,10.32
2022-10-02T15:59:08.664Z,17.73
2022-10-02T16:02:00.888Z,30.48
2022-10-02T16:04:38.720Z,16.73
2022-10-02T16:07:11.737Z,11.65
2022-10-02T16:10:02.284Z,8.23
2022-10-02T16:12:41.311Z,4.75
2022-10-02T16:15:13.945Z,4.43
2022-10-02T16:17:49.654Z,4.90
2022-10-02T16:20:41.251Z,4.82
2022-10-02T16:23:36.662Z,4.60
2022-10-02T16:26:27.681Z,6.63
2022-10-02T16:29:08.284Z,6.03
2022-10-02T16:31:40.929Z,5.15
2022-10-02T16:34:15.472Z,5.88
2022-10-02T16:36:52.672Z,6.55
2022-10-02T16:39:46.586Z,5.72
2022-10-02T16:42:42.353Z,5.20
2022-10-02T16:45:35.437Z,8.00
2022-10-02T16:48:12.482Z,2.70
2022-10-02T16:51:08.466Z,2.75
2022-10-02T16:54:02.735Z,4.63
2022-10-02T16:56:54.423Z,3.20
2022-10-02T16:59:39.268Z,3.63
2022-10-02T17:02:33.917Z,1.15
2022-10-02T17:05:06.454Z,1.48
2022-10-02T17:08:11.783Z,1.92
2022-10-02T17:10:47.181Z,1.80
2022-10-02T17:13:38.839Z,4.28
2022-10-02T17:16:21.499Z,3.35
2022-10-02T17:18:58.359Z,2.55
2022-10-02T17:21:46.529Z,1.50
2022-10-02T17:24:33.374Z,1.77
2022-10-02T17:27:05.939Z,2.00
2022-10-02T17:30:11.026Z,1.60
2022-10-02T17:32:46.407Z,2.42
2022-10-02T17:35:25.965Z,2.17
2022-10-02T17:38:09.936Z,1.92
2022-10-02T17:40:42.894Z,1.45
2022-10-02T17:43:18.469Z,1.52
2022-10-02T17:46:03.449Z,1.42
2022-10-02T17:48:46.319Z,1.38
2022-10-02T17:51:52.385Z,1.40
2022-10-02T17:55:06.884Z,1.65
2022-10-02T17:57:51.980Z,2.10
2022-10-02T18:00:26.638Z,1.85
2022-10-02T18:03:15.674Z,1.88
2022-10-02T18:05:51.349Z,1.40
2022-10-02T18:08:28.519Z,1.80
2022-10-02T18:11:03.479Z,1.17
2022-10-02T18:13:39.740Z,1.20
2022-10-02T18:16:32.760Z,1.42
2022-10-02T18:19:27.993Z,1.27
2022-10-02T18:22:07.761Z,1.45
2022-10-02T18:24:46.503Z,1.35
2022-10-02T18:27:38.097Z,1.65
2022-10-02T18:30:12.955Z,2.10
2022-10-02T18:32:51.950Z,1.88
2022-10-02T18:35:32.462Z,2.00
2022-10-02T18:38:05.160Z,1.75
2022-10-02T18:41:05.635Z,1.50
2022-10-02T18:43:41.636Z,1.23
2022-10-02T18:46:17.462Z,1.58
2022-10-02T18:49:08.739Z,1.10
2022-10-02T18:52:00.476Z,1.33
2022-10-02T18:54:42.516Z,1.63
2022-10-02T18:57:15.892Z,1.40
2022-10-02T19:00:08.148Z,1.20
2022-10-02T19:03:02.085Z,1.20
2022-10-02T19:05:39.425Z,1.50
2022-10-02T19:08:24.639Z,1.50
2022-10-02T19:10:57.292Z,1.90
2022-10-02T19:13:31.820Z,1.65
2022-10-02T19:16:17.803Z,1.83
2022-10-02T19:18:52.209Z,1.40
2022-10-02T19:21:25.779Z,1.40
2022-10-02T19:24:01.716Z,1.50
2022-10-02T19:26:37.727Z,1.40
2022-10-02T19:29:29.536Z,1.48
2022-10-02T19:32:08.145Z,1.63
2022-10-02T19:34:42.572Z,1.70
2022-10-02T19:37:17.452Z,1.50
2022-10-02T19:39:53.370Z,1.67
2022-10-02T19:42:28.292Z,1.45
2022-10-02T19:45:05.442Z,1.47
2022-10-02T19:47:42.845Z,1.40
2022-10-02T19:50:20.042Z,1.50
2022-10-02T19:53:00.043Z,1.83
2022-10-02T19:55:36.786Z,1.77
2022-10-02T19:58:15.798Z,2.08
2022-10-02T20:00:52.942Z,2.60
2022-10-02T20:03:26.089Z,2.78
2022-10-02T20:06:18.865Z,2.25
2022-10-02T20:08:57.836Z,1.95
2022-10-02T20:11:48.190Z,2.00
2022-10-02T20:14:24.162Z,1.50
2022-10-02T20:17:09.593Z,1.50
2022-10-02T20:19:53.109Z,1.55
2022-10-02T20:22:41.543Z,1.50
2022-10-02T20:25:28.400Z,1.70
2022-10-02T20:28:01.345Z,2.25
2022-10-02T20:30:41.746Z,1.60
2022-10-02T20:33:20.511Z,2.25
2022-10-02T20:35:53.762Z,1.88
2022-10-02T20:38:31.157Z,2.05
2022-10-02T20:41:07.631Z,1.50
2022-10-02T20:43:47.585Z,1.73
2022-10-02T20:46:25.841Z,2.30
2022-10-02T20:49:13.510Z,1.73
2022-10-02T20:51:50.491Z,1.90
2022-10-02T20:54:44.063Z,1.88
2022-10-02T20:57:16.586Z,1.90
2022-10-02T20:59:52.553Z,2.20
2022-10-02T21:02:44.862Z,1.85
2022-10-02T21:05:41.491Z,1.85
2022-10-02T21:08:19.833Z,1.70
2022-10-02T21:11:14.762Z,2.17
2022-10-02T21:13:53.830Z,2.13
2022-10-02T21:16:50.138Z,2.00
2022-10-02T21:19:33.327Z,1.90
2022-10-02T21:22:06.095Z,2.00
2022-10-02T21:24:41.530Z,2.60
2022-10-02T21:27:41.873Z,2.15
2022-10-02T21:30:14.424Z,2.20
2022-10-02T21:32:47.254Z,3.30
2022-10-02T21:35:34.869Z,3.63
2022-10-02T21:38:28.602Z,4.00
2022-10-02T21:41:06.997Z,3.80
2022-10-02T21:43:45.916Z,4.22
2022-10-02T21:46:22.335Z,3.40
2022-10-02T21:48:55.439Z,3.60
2022-10-02T21:51:28.101Z,4.43
2022-10-02T21:54:20.276Z,2.70
2022-10-02T21:57:02.784Z,2.38
2022-10-02T21:59:54.549Z,3.40
2022-10-02T22:02:33.013Z,2.65
2022-10-02T22:05:05.764Z,3.25
2022-10-02T22:07:38.277Z,4.05
2022-10-02T22:10:30.495Z,2.55
2022-10-02T22:13:13.905Z,2.13
2022-10-02T22:16:05.497Z,2.00
2022-10-02T22:18:58.457Z,1.88
2022-10-02T22:21:56.899Z,2.30
2022-10-02T22:24:29.727Z,1.67
2022-10-02T22:27:21.561Z,2.05
2022-10-02T22:29:55.120Z,1.70
2022-10-02T22:32:54.718Z,1.88
2022-10-02T22:35:45.579Z,1.70
2022-10-02T22:38:34.580Z,1.80
2022-10-02T22:41:07.701Z,1.70
2022-10-02T22:44:10.045Z,1.83
2022-10-02T22:47:01.396Z,2.15
2022-10-02T22:49:37.364Z,1.80
2022-10-02T22:52:22.087Z,2.07
2022-10-02T22:55:07.237Z,1.55
2022-10-02T22:57:44.671Z,1.88
2022-10-02T23:00:17.524Z,1.83
2022-10-02T23:02:59.268Z,2.00
2022-10-02T23:05:41.804Z,2.13
2022-10-02T23:08:14.622Z,2.03
2022-10-02T23:10:52.633Z,1.80
2022-10-02T23:13:28.477Z,1.60
2022-10-02T23:16:08.735Z,1.67
2022-10-02T23:18:41.291Z,1.90
2022-10-02T23:21:18.449Z,1.80
2022-10-02T23:23:56.269Z,1.90
2022-10-02T23:26:29.953Z,2.28
2022-10-02T23:29:25.428Z,1.60
2022-10-02T23:32:20.536Z,1.90
2022-10-02T23:35:05.219Z,2.28
2022-10-02T23:37:44.774Z,2.08
2022-10-02T23:40:17.359Z,1.45
2022-10-02T23:42:56.608Z,1.80
2022-10-02T23:45:50.475Z,1.90
2022-10-02T23:48:23.397Z,2.17
2022-10-02T23:51:08.268Z,1.80
2022-10-02T23:53:53.578Z,1.80
2022-10-02T23:56:41.398Z,1.70
2022-10-02T23:59:26.882Z,1.50
